Hampton Falls, New Hampshire
Current Conditions -  °F | °C
As of 5:58 PM on Tuesday 21 Oct 2014 (Local Time) from KPSM Reporting Station
Overcast Overcast  
Wind Chill: 54°   Ceiling: 500
Heat Index: 54°   Visibility: 10mi
Dew Point: 52°   Wind: 7mph
Humidity: 93%   Direction: 360°N
Pressure: 29.95"   Gusts: NA
Location:  42.92°N, 70.86°W
Report Text: KPSM 212158Z 36006KT 10SM BKN005 OVC012 12/11 A2995 RMK AO2A SLP146 T01200109
Loading
Personal Weather Stations






























Interactive Weather Map
Tropical Storm Tracking
New forecast layout! Learn more

10-Day Weather Forecast

Advertisements
Track Severe Weather on mobile